Puerto Lempira, Honduras
Current Conditions -  °F | °C
As of 10:00 PM on Wednesday 17 Dec 2014 (Local Time) from MHCA Reporting Station
Broken Clouds Broken Clouds  
Wind Chill: 66°   Ceiling: 7000
Heat Index: 66°   Visibility: 6mi
Dew Point: 64°   Wind: 0mph
Humidity: 94%   Direction: NA
Pressure: 30.09"   Gusts: NA
Location:  15.26°N, 83.79°W
Report Text: MHCA 180400Z 00000KT 9999 SCT028 BKN070 19/18 Q1019
Loading
Personal Weather Stations






























Interactive Weather Map New forecast layout! Learn more

10-Day Weather Forecast

Advertisements
Track Severe Weather on mobile